createdAt,value
2018-08-19T00:00:56.818Z,21.31
2018-08-19T00:04:00.764Z,21.24
2018-08-19T00:07:04.328Z,21.37
2018-08-19T00:10:08.581Z,21.44
2018-08-19T00:13:13.329Z,21.42
2018-08-19T00:16:17.210Z,21.44
2018-08-19T00:19:23.227Z,21.44
2018-08-19T00:22:28.706Z,21.31
2018-08-19T00:25:35.834Z,21.23
2018-08-19T00:28:40.506Z,21.09
2018-08-19T00:31:44.092Z,21.09
2018-08-19T00:34:48.756Z,21.21
2018-08-19T00:37:52.955Z,21.11
2018-08-19T00:40:57.224Z,21.07
2018-08-19T00:44:00.851Z,20.92
2018-08-19T00:47:04.541Z,20.93
2018-08-19T00:50:08.293Z,20.93
2018-08-19T00:53:12.810Z,20.97
2018-08-19T00:56:16.476Z,20.97
2018-08-19T00:59:20.394Z,20.88
2018-08-19T01:02:24.019Z,20.91
2018-08-19T01:05:29.583Z,20.93
2018-08-19T01:08:33.247Z,20.97
2018-08-19T01:11:38.065Z,21.02
2018-08-19T01:14:41.785Z,20.80
2018-08-19T01:17:46.685Z,20.66
2018-08-19T01:20:59.225Z,20.35
2018-08-19T01:24:05.143Z,20.48
2018-08-19T01:27:10.437Z,20.61
2018-08-19T01:30:18.090Z,20.70
2018-08-19T01:33:23.181Z,20.60
2018-08-19T01:36:28.160Z,20.42
2018-08-19T01:39:32.024Z,20.18
2018-08-19T01:42:36.679Z,20.30
2018-08-19T01:45:40.404Z,20.49
2018-08-19T01:48:43.950Z,20.63
2018-08-19T01:51:48.801Z,20.63
2018-08-19T01:54:52.628Z,20.75
2018-08-19T01:57:57.755Z,20.63
2018-08-19T02:01:01.329Z,20.46
2018-08-19T02:04:05.155Z,20.77
2018-08-19T02:07:09.864Z,20.64
2018-08-19T02:10:13.545Z,20.58
2018-08-19T02:13:18.239Z,20.69
2018-08-19T02:16:21.983Z,20.93
2018-08-19T02:19:25.888Z,20.93
2018-08-19T02:22:29.727Z,20.83
2018-08-19T02:25:36.384Z,20.85
2018-08-19T02:28:39.969Z,20.92
2018-08-19T02:31:43.717Z,20.89
2018-08-19T02:34:47.841Z,20.77
2018-08-19T02:37:52.346Z,20.86
2018-08-19T02:40:55.992Z,20.81
2018-08-19T02:44:00.654Z,20.66
2018-08-19T02:47:04.251Z,20.61
2018-08-19T02:50:07.852Z,20.51
2018-08-19T02:53:11.387Z,20.56
2018-08-19T02:56:17.963Z,20.48
2018-08-19T02:59:21.563Z,20.60
2018-08-19T03:02:26.437Z,20.64
2018-08-19T03:05:31.095Z,20.56
2018-08-19T03:08:34.761Z,20.52
2018-08-19T03:11:38.424Z,20.56
2018-08-19T03:14:42.093Z,20.48
2018-08-19T03:17:48.304Z,20.47
2018-08-19T03:20:51.945Z,20.36
2018-08-19T03:23:55.601Z,20.33
2018-08-19T03:27:00.973Z,20.34
2018-08-19T03:30:08.843Z,20.20
2018-08-19T03:33:12.440Z,20.31
2018-08-19T03:36:16.021Z,20.24
2018-08-19T03:39:20.181Z,20.15
2018-08-19T03:42:24.810Z,20.27
2018-08-19T03:45:31.150Z,20.33
2018-08-19T03:48:34.989Z,20.19
2018-08-19T03:51:38.645Z,20.22
2018-08-19T03:54:42.388Z,20.34
2018-08-19T03:57:45.948Z,20.20
2018-08-19T04:00:49.595Z,20.16
2018-08-19T04:03:53.264Z,20.05
2018-08-19T04:06:56.889Z,19.93
2018-08-19T04:10:02.448Z,19.90
2018-08-19T04:13:16.916Z,20.03
2018-08-19T04:16:20.529Z,20.20
2018-08-19T04:19:27.421Z,20.14
2018-08-19T04:22:30.977Z,20.25
2018-08-19T04:25:36.566Z,20.02
2018-08-19T04:28:42.024Z,20.25
2018-08-19T04:31:46.341Z,20.03
2018-08-19T04:34:54.681Z,20.12
2018-08-19T04:37:58.699Z,20.19
2018-08-19T04:41:03.297Z,20.18
2018-08-19T04:44:08.393Z,20.07
2018-08-19T04:47:32.381Z,20.10
2018-08-19T04:50:36.070Z,20.22
2018-08-19T04:53:46.412Z,20.28
2018-08-19T04:56:49.966Z,20.16
2018-08-19T04:59:53.560Z,20.12
2018-08-19T05:02:57.168Z,20.06
2018-08-19T05:06:02.455Z,20.33
2018-08-19T05:09:08.408Z,20.27
2018-08-19T05:12:13.095Z,20.56
2018-08-19T05:15:17.336Z,20.47
2018-08-19T05:18:20.949Z,20.49
2018-08-19T05:21:26.410Z,20.71
2018-08-19T05:24:30.653Z,20.61
2018-08-19T05:27:34.246Z,20.50
2018-08-19T05:30:37.811Z,20.60
2018-08-19T05:33:42.798Z,20.54
2018-08-19T05:36:49.774Z,20.63
2018-08-19T05:39:57.608Z,20.52
2018-08-19T05:43:02.821Z,20.40
2018-08-19T05:46:07.988Z,20.56
2018-08-19T05:49:11.559Z,20.47
2018-08-19T05:52:17.769Z,20.41
2018-08-19T05:55:21.672Z,20.34
2018-08-19T05:58:25.366Z,20.55
2018-08-19T06:01:31.845Z,20.69
2018-08-19T06:04:36.320Z,20.71
2018-08-19T06:07:42.156Z,20.55
2018-08-19T06:10:45.604Z,20.60
2018-08-19T06:13:49.238Z,20.45
2018-08-19T06:16:52.841Z,20.59
2018-08-19T06:19:57.478Z,20.57
2018-08-19T06:23:01.421Z,21.04
2018-08-19T06:26:06.723Z,20.95
2018-08-19T06:29:18.192Z,20.86
2018-08-19T06:32:28.316Z,21.19
2018-08-19T06:35:32.872Z,21.30
2018-08-19T06:38:36.463Z,21.16
2018-08-19T06:41:40.918Z,21.05
2018-08-19T06:45:00.439Z,21.17
2018-08-19T06:48:05.291Z,21.25
2018-08-19T06:51:20.427Z,21.24
2018-08-19T06:54:26.812Z,21.21
2018-08-19T06:57:30.595Z,21.32
2018-08-19T07:00:34.319Z,21.39
2018-08-19T07:03:40.528Z,21.42
2018-08-19T07:06:44.118Z,21.50
2018-08-19T07:09:47.650Z,21.62
2018-08-19T07:12:55.552Z,21.74
2018-08-19T07:15:59.222Z,21.77
2018-08-19T07:19:02.812Z,21.95
2018-08-19T07:22:11.077Z,22.24
2018-08-19T07:25:18.105Z,22.49
2018-08-19T07:28:22.820Z,22.53
2018-08-19T07:31:26.372Z,22.68
2018-08-19T07:34:31.251Z,22.86
2018-08-19T07:37:37.705Z,23.09
2018-08-19T07:40:42.573Z,23.28
2018-08-19T07:43:49.268Z,23.43
2018-08-19T07:47:01.907Z,23.54
2018-08-19T07:50:06.372Z,23.76
2018-08-19T07:53:10.179Z,23.90
2018-08-19T07:56:14.124Z,23.97
2018-08-19T07:59:18.420Z,24.16
2018-08-19T08:02:25.326Z,24.36
2018-08-19T08:05:32.997Z,24.57
2018-08-19T08:08:36.656Z,24.81
2018-08-19T08:11:41.261Z,24.84
2018-08-19T08:14:50.033Z,25.07
2018-08-19T08:17:53.781Z,25.31
2018-08-19T08:21:04.524Z,25.36
2018-08-19T08:24:09.868Z,25.45
2018-08-19T08:27:13.582Z,25.74
2018-08-19T08:30:17.192Z,25.81
2018-08-19T08:33:20.767Z,25.86
2018-08-19T08:36:25.044Z,26.03
2018-08-19T08:39:30.800Z,25.99
2018-08-19T08:42:44.072Z,26.10
2018-08-19T08:45:47.690Z,26.19
2018-08-19T08:48:51.360Z,26.34
2018-08-19T08:51:54.940Z,26.54
2018-08-19T08:55:00.218Z,26.45
2018-08-19T08:58:03.794Z,26.57
2018-08-19T09:01:07.389Z,26.53
2018-08-19T09:04:10.986Z,26.84
2018-08-19T09:07:16.037Z,27.17
2018-08-19T09:10:19.745Z,27.35
2018-08-19T09:16:54.796Z,27.67
2018-08-19T09:20:00.403Z,28.02
2018-08-19T09:23:04.528Z,28.27
2018-08-19T09:26:15.245Z,28.10
2018-08-19T09:29:19.208Z,28.30
2018-08-19T09:32:23.266Z,28.30
2018-08-19T09:35:29.552Z,28.77
2018-08-19T09:38:33.194Z,29.03
2018-08-19T09:41:36.832Z,28.97
2018-08-19T09:44:42.417Z,29.00
2018-08-19T09:47:51.969Z,29.01
2018-08-19T09:51:02.522Z,29.24
2018-08-19T09:58:20.992Z,29.28
2018-08-19T10:01:30.911Z,29.91
2018-08-19T10:04:34.947Z,29.86
2018-08-19T10:07:39.779Z,29.98
2018-08-19T10:10:45.037Z,29.68
2018-08-19T10:13:57.182Z,29.94
2018-08-19T10:17:01.857Z,29.93
2018-08-19T10:20:05.881Z,30.02
2018-08-19T10:23:09.747Z,30.05
2018-08-19T10:26:18.241Z,30.21
2018-08-19T10:29:28.761Z,30.07
2018-08-19T10:32:32.364Z,30.61
2018-08-19T10:35:37.675Z,30.70
2018-08-19T10:38:41.264Z,30.82
2018-08-19T10:41:45.796Z,30.99
2018-08-19T10:44:50.540Z,31.15
2018-08-19T10:47:54.144Z,31.24
2018-08-19T10:50:58.807Z,31.33
2018-08-19T10:54:02.360Z,31.55
2018-08-19T10:57:18.281Z,31.21
2018-08-19T11:00:27.522Z,31.31
2018-08-19T11:03:31.057Z,31.65
2018-08-19T11:06:34.611Z,31.84
2018-08-19T11:09:49.508Z,31.69
2018-08-19T11:12:55.082Z,31.92
2018-08-19T11:15:59.175Z,32.13
2018-08-19T11:19:05.262Z,32.31
2018-08-19T11:22:08.838Z,32.62
2018-08-19T11:25:12.474Z,32.54
2018-08-19T11:28:58.533Z,32.38
2018-08-19T11:32:02.111Z,32.31
2018-08-19T11:35:06.923Z,32.71
2018-08-19T11:38:10.495Z,32.58
2018-08-19T11:41:14.660Z,32.80
2018-08-19T11:44:18.555Z,32.58
2018-08-19T11:47:24.103Z,32.78
2018-08-19T11:50:28.312Z,33.15
2018-08-19T11:53:32.729Z,32.78
2018-08-19T11:56:36.428Z,32.84
2018-08-19T11:59:44.241Z,33.11
2018-08-19T12:02:47.780Z,33.27
2018-08-19T12:05:51.376Z,33.17
2018-08-19T12:08:57.170Z,33.39
2018-08-19T12:12:00.781Z,33.64
2018-08-19T12:15:07.980Z,33.63
2018-08-19T12:18:11.497Z,33.81
2018-08-19T12:21:15.141Z,33.55
2018-08-19T12:24:34.152Z,33.74
2018-08-19T12:27:37.876Z,33.69
2018-08-19T12:30:41.318Z,33.58
2018-08-19T12:33:44.903Z,33.53
2018-08-19T12:36:48.487Z,33.02
2018-08-19T12:39:52.520Z,33.46
2018-08-19T12:42:56.041Z,33.48
2018-08-19T12:46:01.072Z,33.75
2018-08-19T12:49:06.655Z,33.62
2018-08-19T12:52:11.440Z,32.77
2018-08-19T12:55:15.204Z,33.02
2018-08-19T12:58:18.920Z,33.31
2018-08-19T13:01:22.412Z,33.26
2018-08-19T13:04:25.965Z,33.54
2018-08-19T13:07:30.446Z,33.43
2018-08-19T13:10:40.316Z,32.81
2018-08-19T13:13:44.970Z,33.16
2018-08-19T13:16:48.575Z,32.47
2018-08-19T13:19:59.239Z,32.62
2018-08-19T13:23:04.638Z,33.45
2018-08-19T13:26:10.242Z,33.51
2018-08-19T13:29:14.731Z,33.10
2018-08-19T13:32:18.863Z,33.67
2018-08-19T13:35:23.385Z,33.84
2018-08-19T13:38:43.826Z,33.13
2018-08-19T13:41:50.548Z,32.95
2018-08-19T13:44:57.768Z,33.51
2018-08-19T13:48:01.947Z,34.00
2018-08-19T13:51:05.485Z,34.18
2018-08-19T13:54:10.051Z,34.33
2018-08-19T13:57:15.000Z,33.96
2018-08-19T14:00:21.208Z,33.91
2018-08-19T14:03:26.776Z,34.08
2018-08-19T14:06:30.271Z,34.10
2018-08-19T14:09:33.796Z,33.76
2018-08-19T14:12:37.528Z,33.93
2018-08-19T14:15:42.339Z,33.47
2018-08-19T14:18:48.392Z,33.27
2018-08-19T14:21:51.964Z,33.54
2018-08-19T14:24:57.515Z,32.99
2018-08-19T14:28:01.780Z,33.32
2018-08-19T14:31:05.324Z,33.22
2018-08-19T14:34:08.874Z,33.35
2018-08-19T14:37:13.839Z,33.21
2018-08-19T14:40:18.678Z,33.37
2018-08-19T14:43:22.297Z,33.13
2018-08-19T14:46:27.738Z,32.93
2018-08-19T14:49:33.345Z,32.70
2018-08-19T14:52:36.970Z,32.81
2018-08-19T14:55:40.484Z,32.85
2018-08-19T14:58:44.476Z,32.39
2018-08-19T15:01:48.770Z,32.40
2018-08-19T15:04:52.885Z,32.53
2018-08-19T15:07:57.432Z,32.78
2018-08-19T15:11:04.881Z,32.55
2018-08-19T15:14:16.011Z,32.44
2018-08-19T15:17:19.593Z,32.46
2018-08-19T15:20:28.913Z,32.25
2018-08-19T15:23:32.601Z,32.58
2018-08-19T15:26:37.156Z,32.75
2018-08-19T15:29:45.596Z,32.59
2018-08-19T15:32:50.891Z,32.67
2018-08-19T15:35:54.132Z,32.70
2018-08-19T15:38:59.661Z,32.38
2018-08-19T15:42:03.208Z,32.55
2018-08-19T15:45:06.822Z,32.40
2018-08-19T15:48:10.462Z,32.76
2018-08-19T15:51:15.091Z,32.68
2018-08-19T15:54:18.672Z,32.72
2018-08-19T15:57:22.382Z,32.39
2018-08-19T16:00:26.805Z,32.47
2018-08-19T16:03:38.413Z,32.43
2018-08-19T16:06:43.420Z,32.40
2018-08-19T16:09:46.941Z,32.40
2018-08-19T16:12:51.663Z,32.20
2018-08-19T16:15:55.323Z,32.22
2018-08-19T16:18:59.117Z,31.99
2018-08-19T16:22:02.730Z,31.82
2018-08-19T16:25:06.362Z,31.87
2018-08-19T16:28:10.001Z,31.69
2018-08-19T16:31:14.091Z,31.65
2018-08-19T16:34:19.485Z,31.40
2018-08-19T16:37:23.244Z,31.48
2018-08-19T16:40:26.772Z,31.46
2018-08-19T16:43:37.152Z,31.44
2018-08-19T16:46:41.336Z,31.32
2018-08-19T16:49:45.573Z,31.29
2018-08-19T16:52:51.097Z,31.31
2018-08-19T16:55:54.828Z,31.25
2018-08-19T16:58:59.035Z,31.18
2018-08-19T17:02:05.822Z,31.17
2018-08-19T17:05:23.530Z,31.08
2018-08-19T17:08:29.569Z,30.82
2018-08-19T17:33:07.787Z,30.18
2018-08-19T17:39:35.402Z,29.73
2018-08-19T17:42:40.307Z,29.56
2018-08-19T17:45:53.093Z,29.51
2018-08-19T17:48:59.681Z,29.34
2018-08-19T17:52:04.856Z,29.16
2018-08-19T17:55:08.510Z,29.09
2018-08-19T17:58:25.575Z,29.10
2018-08-19T18:01:31.316Z,28.83
2018-08-19T18:04:41.657Z,28.67
2018-08-19T18:08:03.801Z,28.62
2018-08-19T18:11:32.094Z,28.53
2018-08-19T18:14:52.845Z,28.35
2018-08-19T18:18:06.553Z,28.26
2018-08-19T18:21:12.540Z,28.33
2018-08-19T18:24:17.857Z,28.30
2018-08-19T18:27:24.551Z,28.24
2018-08-19T18:30:32.304Z,28.21
2018-08-19T18:33:51.970Z,28.17
2018-08-19T18:37:11.465Z,28.05
2018-08-19T18:45:35.062Z,27.95
2018-08-19T18:48:39.820Z,27.91
2018-08-19T18:55:41.404Z,27.39
2018-08-19T18:58:49.878Z,27.30
2018-08-19T19:27:16.492Z,26.70
2018-08-19T19:34:18.267Z,26.36
2018-08-19T19:37:23.122Z,26.22
2018-08-19T19:40:32.247Z,26.23
2018-08-19T19:43:39.911Z,26.35
2018-08-19T19:46:44.756Z,26.32
2018-08-19T19:50:01.308Z,26.32
2018-08-19T19:53:19.244Z,26.26
2018-08-19T19:56:38.982Z,26.19
2018-08-19T19:59:59.162Z,26.09
2018-08-19T20:03:20.646Z,26.01
2018-08-19T20:06:31.587Z,25.84
2018-08-19T20:09:37.213Z,25.70
2018-08-19T20:12:52.021Z,25.65
2018-08-19T20:15:59.796Z,25.50
2018-08-19T20:19:10.055Z,25.56
2018-08-19T20:22:19.129Z,25.62
2018-08-19T20:25:31.669Z,25.67
2018-08-19T20:28:35.917Z,25.57
2018-08-19T20:31:44.501Z,25.51
2018-08-19T20:34:55.800Z,25.48
2018-08-19T20:41:26.891Z,25.50
2018-08-19T20:44:32.630Z,25.48
2018-08-19T20:51:07.278Z,25.31
2018-08-19T20:54:10.918Z,25.18
2018-08-19T20:57:16.042Z,25.05
2018-08-19T21:00:22.057Z,25.14
2018-08-19T21:03:26.731Z,25.12
2018-08-19T21:06:30.319Z,25.07
2018-08-19T21:09:35.501Z,25.07
2018-08-19T21:12:39.234Z,25.01
2018-08-19T21:15:51.701Z,24.62
2018-08-19T21:18:55.388Z,24.41
2018-08-19T21:21:59.045Z,24.66
2018-08-19T21:25:02.601Z,24.71
2018-08-19T21:28:06.370Z,24.62
2018-08-19T21:31:09.969Z,24.55
2018-08-19T21:34:13.724Z,24.60
2018-08-19T21:37:22.497Z,24.67
2018-08-19T21:40:32.299Z,24.54
2018-08-19T21:43:37.057Z,24.54
2018-08-19T21:46:41.880Z,24.50
2018-08-19T21:49:49.651Z,24.42
2018-08-19T21:52:59.262Z,24.48
2018-08-19T21:56:04.591Z,24.46
2018-08-19T21:59:13.181Z,24.42
2018-08-19T22:02:22.033Z,24.50
2018-08-19T22:05:26.998Z,24.40
2018-08-19T22:08:30.656Z,24.42
2018-08-19T22:11:35.125Z,24.34
2018-08-19T22:14:40.067Z,24.14
2018-08-19T22:17:45.896Z,24.19
2018-08-19T22:21:03.268Z,24.14
2018-08-19T22:24:07.075Z,24.00
2018-08-19T22:27:18.043Z,23.96
2018-08-19T22:30:23.797Z,23.88
2018-08-19T22:33:29.987Z,23.80
2018-08-19T22:36:33.699Z,23.71
2018-08-19T22:39:39.126Z,23.74
2018-08-19T22:42:43.524Z,23.74
2018-08-19T22:45:47.400Z,23.64
2018-08-19T22:48:53.637Z,23.66
2018-08-19T22:52:07.401Z,23.50
2018-08-19T22:55:11.289Z,23.47
2018-08-19T22:58:15.949Z,23.51
2018-08-19T23:01:19.793Z,23.41
2018-08-19T23:04:23.515Z,23.08
2018-08-19T23:07:29.477Z,22.90
2018-08-19T23:10:34.121Z,22.90
2018-08-19T23:13:50.110Z,22.77
2018-08-19T23:16:54.584Z,22.86
2018-08-19T23:19:59.933Z,23.02
2018-08-19T23:23:03.460Z,23.02
2018-08-19T23:26:07.127Z,22.97
2018-08-19T23:29:10.668Z,23.01
2018-08-19T23:32:14.172Z,23.04
2018-08-19T23:35:17.724Z,22.90
2018-08-19T23:38:21.231Z,22.65
2018-08-19T23:41:26.741Z,22.45
2018-08-19T23:44:30.286Z,22.41
2018-08-19T23:47:34.982Z,22.71
2018-08-19T23:50:40.364Z,22.76
2018-08-19T23:53:44.000Z,22.70
2018-08-19T23:56:47.513Z,22.81
2018-08-19T23:59:51.093Z,22.87
